sensor_id;sensor_type;location;lat;lon;timestamp;P1;durP1;ratioP1;P2;durP2;ratioP2
23078;SDS011;11707;50.830;4.364;2023-06-22T00:02:20;6.25;;;2.30;;
23078;SDS011;11707;50.830;4.364;2023-06-22T00:04:48;4.82;;;2.20;;
23078;SDS011;11707;50.830;4.364;2023-06-22T00:07:14;4.35;;;2.38;;
23078;SDS011;11707;50.830;4.364;2023-06-22T00:09:42;5.28;;;2.50;;
23078;SDS011;11707;50.830;4.364;2023-06-22T00:12:08;7.97;;;2.65;;
23078;SDS011;11707;50.830;4.364;2023-06-22T00:14:33;4.00;;;2.45;;
23078;SDS011;11707;50.830;4.364;2023-06-22T00:16:59;5.30;;;2.35;;
23078;SDS011;11707;50.830;4.364;2023-06-22T00:19:25;4.65;;;2.70;;
23078;SDS011;11707;50.830;4.364;2023-06-22T00:21:53;3.78;;;2.33;;
23078;SDS011;11707;50.830;4.364;2023-06-22T00:24:21;4.43;;;2.55;;
23078;SDS011;11707;50.830;4.364;2023-06-22T00:26:52;4.30;;;2.45;;
23078;SDS011;11707;50.830;4.364;2023-06-22T00:29:18;5.40;;;3.05;;
23078;SDS011;11707;50.830;4.364;2023-06-22T00:31:44;5.13;;;2.95;;
23078;SDS011;11707;50.830;4.364;2023-06-22T00:34:10;5.57;;;2.97;;
23078;SDS011;11707;50.830;4.364;2023-06-22T00:36:40;5.28;;;2.75;;
23078;SDS011;11707;50.830;4.364;2023-06-22T00:39:06;5.03;;;3.20;;
23078;SDS011;11707;50.830;4.364;2023-06-22T00:41:32;5.78;;;3.00;;
23078;SDS011;11707;50.830;4.364;2023-06-22T00:43:58;3.55;;;2.75;;
23078;SDS011;11707;50.830;4.364;2023-06-22T00:46:23;4.28;;;2.90;;
23078;SDS011;11707;50.830;4.364;2023-06-22T00:48:50;7.28;;;3.53;;
23078;SDS011;11707;50.830;4.364;2023-06-22T00:51:17;6.47;;;3.53;;
23078;SDS011;11707;50.830;4.364;2023-06-22T00:53:49;5.05;;;3.33;;
23078;SDS011;11707;50.830;4.364;2023-06-22T00:56:19;6.45;;;3.60;;
23078;SDS011;11707;50.830;4.364;2023-06-22T00:58:52;5.88;;;3.72;;
23078;SDS011;11707;50.830;4.364;2023-06-22T01:01:18;6.53;;;3.30;;
23078;SDS011;11707;50.830;4.364;2023-06-22T01:03:48;6.82;;;3.58;;
23078;SDS011;11707;50.830;4.364;2023-06-22T01:06:16;5.85;;;2.90;;
23078;SDS011;11707;50.830;4.364;2023-06-22T01:08:53;8.07;;;3.13;;
23078;SDS011;11707;50.830;4.364;2023-06-22T01:11:48;4.63;;;3.10;;
23078;SDS011;11707;50.830;4.364;2023-06-22T01:17:29;5.88;;;3.55;;
23078;SDS011;11707;50.830;4.364;2023-06-22T01:19:56;7.70;;;3.70;;
23078;SDS011;11707;50.830;4.364;2023-06-22T01:22:24;5.47;;;3.80;;
23078;SDS011;11707;50.830;4.364;2023-06-22T01:27:53;7.85;;;3.90;;
23078;SDS011;11707;50.830;4.364;2023-06-22T01:30:28;7.15;;;5.00;;
23078;SDS011;11707;50.830;4.364;2023-06-22T01:32:59;6.77;;;4.30;;
23078;SDS011;11707;50.830;4.364;2023-06-22T01:35:26;5.32;;;4.07;;
23078;SDS011;11707;50.830;4.364;2023-06-22T01:37:53;9.40;;;4.75;;
23078;SDS011;11707;50.830;4.364;2023-06-22T01:40:19;7.95;;;4.60;;
23078;SDS011;11707;50.830;4.364;2023-06-22T01:42:45;7.47;;;4.60;;
23078;SDS011;11707;50.830;4.364;2023-06-22T01:45:14;7.20;;;4.30;;
23078;SDS011;11707;50.830;4.364;2023-06-22T01:47:40;6.20;;;4.30;;
23078;SDS011;11707;50.830;4.364;2023-06-22T01:50:07;6.47;;;3.95;;
23078;SDS011;11707;50.830;4.364;2023-06-22T01:52:35;6.03;;;4.20;;
23078;SDS011;11707;50.830;4.364;2023-06-22T01:55:01;8.27;;;4.75;;
23078;SDS011;11707;50.830;4.364;2023-06-22T01:57:27;5.38;;;4.20;;
23078;SDS011;11707;50.830;4.364;2023-06-22T01:59:57;8.20;;;4.80;;
23078;SDS011;11707;50.830;4.364;2023-06-22T02:02:27;9.07;;;4.63;;
23078;SDS011;11707;50.830;4.364;2023-06-22T02:05:20;9.20;;;4.20;;
23078;SDS011;11707;50.830;4.364;2023-06-22T02:08:08;11.10;;;4.55;;
23078;SDS011;11707;50.830;4.364;2023-06-22T02:11:03;5.40;;;4.40;;
23078;SDS011;11707;50.830;4.364;2023-06-22T02:13:31;7.85;;;5.05;;
23078;SDS011;11707;50.830;4.364;2023-06-22T02:15:58;5.90;;;4.40;;
23078;SDS011;11707;50.830;4.364;2023-06-22T02:18:27;8.27;;;4.65;;
23078;SDS011;11707;50.830;4.364;2023-06-22T02:20:53;7.88;;;5.10;;
23078;SDS011;11707;50.830;4.364;2023-06-22T02:23:18;10.20;;;5.13;;
23078;SDS011;11707;50.830;4.364;2023-06-22T02:25:44;6.78;;;4.82;;
23078;SDS011;11707;50.830;4.364;2023-06-22T02:28:10;6.15;;;4.38;;
23078;SDS011;11707;50.830;4.364;2023-06-22T02:30:36;6.30;;;4.60;;
23078;SDS011;11707;50.830;4.364;2023-06-22T02:33:01;8.63;;;4.50;;
23078;SDS011;11707;50.830;4.364;2023-06-22T02:35:28;5.97;;;4.50;;
23078;SDS011;11707;50.830;4.364;2023-06-22T02:38:00;5.82;;;3.95;;
23078;SDS011;11707;50.830;4.364;2023-06-22T02:40:26;6.15;;;4.15;;
23078;SDS011;11707;50.830;4.364;2023-06-22T02:42:53;10.48;;;4.82;;
23078;SDS011;11707;50.830;4.364;2023-06-22T02:45:18;9.43;;;4.88;;
23078;SDS011;11707;50.830;4.364;2023-06-22T02:47:44;6.63;;;4.50;;
23078;SDS011;11707;50.830;4.364;2023-06-22T02:50:10;8.68;;;4.78;;
23078;SDS011;11707;50.830;4.364;2023-06-22T02:52:35;8.45;;;4.85;;
23078;SDS011;11707;50.830;4.364;2023-06-22T02:55:01;6.18;;;5.07;;
23078;SDS011;11707;50.830;4.364;2023-06-22T02:57:29;7.65;;;5.13;;
23078;SDS011;11707;50.830;4.364;2023-06-22T02:59:55;8.20;;;4.72;;
23078;SDS011;11707;50.830;4.364;2023-06-22T03:02:21;9.05;;;5.15;;
23078;SDS011;11707;50.830;4.364;2023-06-22T03:04:47;6.75;;;5.10;;
23078;SDS011;11707;50.830;4.364;2023-06-22T03:07:18;10.13;;;5.40;;
23078;SDS011;11707;50.830;4.364;2023-06-22T03:09:44;7.35;;;4.82;;
23078;SDS011;11707;50.830;4.364;2023-06-22T03:12:13;7.43;;;4.70;;
23078;SDS011;11707;50.830;4.364;2023-06-22T03:14:39;7.20;;;4.85;;
23078;SDS011;11707;50.830;4.364;2023-06-22T03:17:07;8.88;;;5.70;;
23078;SDS011;11707;50.830;4.364;2023-06-22T03:19:33;9.75;;;5.30;;
23078;SDS011;11707;50.830;4.364;2023-06-22T03:22:00;6.15;;;4.85;;
23078;SDS011;11707;50.830;4.364;2023-06-22T03:24:26;7.05;;;5.00;;
23078;SDS011;11707;50.830;4.364;2023-06-22T03:26:54;6.25;;;4.90;;
23078;SDS011;11707;50.830;4.364;2023-06-22T03:29:20;7.53;;;4.88;;
23078;SDS011;11707;50.830;4.364;2023-06-22T03:31:46;7.60;;;5.85;;
23078;SDS011;11707;50.830;4.364;2023-06-22T03:34:11;7.20;;;4.38;;
23078;SDS011;11707;50.830;4.364;2023-06-22T03:36:37;7.55;;;5.05;;
23078;SDS011;11707;50.830;4.364;2023-06-22T03:39:05;10.07;;;5.82;;
23078;SDS011;11707;50.830;4.364;2023-06-22T03:41:32;6.75;;;5.40;;
23078;SDS011;11707;50.830;4.364;2023-06-22T03:44:00;8.68;;;5.32;;
23078;SDS011;11707;50.830;4.364;2023-06-22T03:46:26;8.48;;;5.63;;
23078;SDS011;11707;50.830;4.364;2023-06-22T03:48:55;11.15;;;6.07;;
23078;SDS011;11707;50.830;4.364;2023-06-22T03:51:20;8.60;;;5.60;;
23078;SDS011;11707;50.830;4.364;2023-06-22T03:53:46;11.07;;;5.90;;
23078;SDS011;11707;50.830;4.364;2023-06-22T03:56:13;8.43;;;5.63;;
23078;SDS011;11707;50.830;4.364;2023-06-22T03:58:45;8.60;;;6.53;;
23078;SDS011;11707;50.830;4.364;2023-06-22T04:01:11;8.13;;;5.95;;
23078;SDS011;11707;50.830;4.364;2023-06-22T04:03:37;10.65;;;6.72;;
23078;SDS011;11707;50.830;4.364;2023-06-22T04:06:04;8.70;;;6.82;;
23078;SDS011;11707;50.830;4.364;2023-06-22T04:08:30;11.30;;;6.72;;
23078;SDS011;11707;50.830;4.364;2023-06-22T04:10:55;8.13;;;7.20;;
23078;SDS011;11707;50.830;4.364;2023-06-22T04:13:21;12.63;;;7.03;;
23078;SDS011;11707;50.830;4.364;2023-06-22T04:15:47;11.52;;;7.35;;
23078;SDS011;11707;50.830;4.364;2023-06-22T04:18:12;12.07;;;7.18;;
23078;SDS011;11707;50.830;4.364;2023-06-22T04:20:40;12.20;;;7.28;;
23078;SDS011;11707;50.830;4.364;2023-06-22T04:23:06;12.15;;;7.32;;
23078;SDS011;11707;50.830;4.364;2023-06-22T04:25:34;10.70;;;7.82;;
23078;SDS011;11707;50.830;4.364;2023-06-22T04:28:00;13.52;;;8.70;;
23078;SDS011;11707;50.830;4.364;2023-06-22T04:30:28;9.13;;;7.85;;
23078;SDS011;11707;50.830;4.364;2023-06-22T04:32:55;8.65;;;7.15;;
23078;SDS011;11707;50.830;4.364;2023-06-22T04:35:24;10.43;;;7.53;;
23078;SDS011;11707;50.830;4.364;2023-06-22T04:37:50;13.80;;;8.13;;
23078;SDS011;11707;50.830;4.364;2023-06-22T04:40:19;13.15;;;8.40;;
23078;SDS011;11707;50.830;4.364;2023-06-22T04:42:46;14.02;;;8.52;;
23078;SDS011;11707;50.830;4.364;2023-06-22T04:45:17;14.05;;;9.43;;
23078;SDS011;11707;50.830;4.364;2023-06-22T04:47:43;14.88;;;8.63;;
23078;SDS011;11707;50.830;4.364;2023-06-22T04:50:10;12.20;;;8.25;;
23078;SDS011;11707;50.830;4.364;2023-06-22T04:52:39;14.82;;;9.25;;
23078;SDS011;11707;50.830;4.364;2023-06-22T04:55:05;12.50;;;9.23;;
23078;SDS011;11707;50.830;4.364;2023-06-22T04:57:34;14.25;;;9.18;;
23078;SDS011;11707;50.830;4.364;2023-06-22T05:00:00;20.63;;;8.93;;
23078;SDS011;11707;50.830;4.364;2023-06-22T05:02:41;12.68;;;8.68;;
23078;SDS011;11707;50.830;4.364;2023-06-22T05:05:07;9.85;;;8.32;;
23078;SDS011;11707;50.830;4.364;2023-06-22T05:07:33;13.10;;;9.10;;
23078;SDS011;11707;50.830;4.364;2023-06-22T05:10:00;12.25;;;9.65;;
23078;SDS011;11707;50.830;4.364;2023-06-22T05:12:27;14.43;;;9.55;;
23078;SDS011;11707;50.830;4.364;2023-06-22T05:14:53;12.57;;;10.27;;
23078;SDS011;11707;50.830;4.364;2023-06-22T05:17:19;13.13;;;10.20;;
23078;SDS011;11707;50.830;4.364;2023-06-22T05:19:49;16.30;;;10.23;;
23078;SDS011;11707;50.830;4.364;2023-06-22T05:22:15;20.35;;;11.85;;
23078;SDS011;11707;50.830;4.364;2023-06-22T05:24:43;21.13;;;13.85;;
23078;SDS011;11707;50.830;4.364;2023-06-22T05:27:09;17.13;;;12.20;;
23078;SDS011;11707;50.830;4.364;2023-06-22T05:29:36;14.38;;;12.65;;
23078;SDS011;11707;50.830;4.364;2023-06-22T05:32:04;15.00;;;12.85;;
23078;SDS011;11707;50.830;4.364;2023-06-22T05:34:30;19.38;;;13.75;;
23078;SDS011;11707;50.830;4.364;2023-06-22T05:36:56;20.23;;;14.95;;
23078;SDS011;11707;50.830;4.364;2023-06-22T05:39:23;20.15;;;15.88;;
23078;SDS011;11707;50.830;4.364;2023-06-22T05:41:50;16.33;;;14.63;;
23078;SDS011;11707;50.830;4.364;2023-06-22T05:44:16;20.80;;;16.80;;
23078;SDS011;11707;50.830;4.364;2023-06-22T05:46:44;22.70;;;18.42;;
23078;SDS011;11707;50.830;4.364;2023-06-22T05:49:11;21.75;;;16.17;;
23078;SDS011;11707;50.830;4.364;2023-06-22T05:51:38;25.00;;;15.63;;
23078;SDS011;11707;50.830;4.364;2023-06-22T05:54:04;21.40;;;14.68;;
23078;SDS011;11707;50.830;4.364;2023-06-22T05:56:35;22.80;;;14.52;;
23078;SDS011;11707;50.830;4.364;2023-06-22T05:59:01;16.48;;;14.43;;
23078;SDS011;11707;50.830;4.364;2023-06-22T06:01:26;21.60;;;17.20;;
23078;SDS011;11707;50.830;4.364;2023-06-22T06:03:52;20.73;;;16.48;;
23078;SDS011;11707;50.830;4.364;2023-06-22T06:06:18;24.38;;;16.45;;
23078;SDS011;11707;50.830;4.364;2023-06-22T06:08:48;27.00;;;18.05;;
23078;SDS011;11707;50.830;4.364;2023-06-22T06:11:14;27.55;;;17.55;;
23078;SDS011;11707;50.830;4.364;2023-06-22T06:13:40;23.02;;;17.83;;
23078;SDS011;11707;50.830;4.364;2023-06-22T06:16:05;19.77;;;17.02;;
23078;SDS011;11707;50.830;4.364;2023-06-22T06:18:31;20.42;;;16.63;;
23078;SDS011;11707;50.830;4.364;2023-06-22T06:20:57;23.08;;;17.35;;
23078;SDS011;11707;50.830;4.364;2023-06-22T06:23:22;22.05;;;17.40;;
23078;SDS011;11707;50.830;4.364;2023-06-22T06:25:48;20.25;;;15.23;;
23078;SDS011;11707;50.830;4.364;2023-06-22T06:28:14;29.92;;;16.38;;
23078;SDS011;11707;50.830;4.364;2023-06-22T06:30:39;23.17;;;15.80;;
23078;SDS011;11707;50.830;4.364;2023-06-22T06:33:06;25.00;;;15.57;;
23078;SDS011;11707;50.830;4.364;2023-06-22T06:35:34;21.35;;;14.73;;
23078;SDS011;11707;50.830;4.364;2023-06-22T06:38:00;27.67;;;14.63;;
23078;SDS011;11707;50.830;4.364;2023-06-22T06:40:25;20.67;;;14.30;;
23078;SDS011;11707;50.830;4.364;2023-06-22T06:42:53;24.67;;;14.85;;
23078;SDS011;11707;50.830;4.364;2023-06-22T06:45:20;22.88;;;15.73;;
23078;SDS011;11707;50.830;4.364;2023-06-22T06:47:48;22.20;;;15.48;;
23078;SDS011;11707;50.830;4.364;2023-06-22T06:50:15;22.40;;;15.55;;
23078;SDS011;11707;50.830;4.364;2023-06-22T06:52:41;20.65;;;15.75;;
23078;SDS011;11707;50.830;4.364;2023-06-22T06:55:08;22.70;;;16.60;;
23078;SDS011;11707;50.830;4.364;2023-06-22T06:57:37;23.77;;;16.23;;
23078;SDS011;11707;50.830;4.364;2023-06-22T07:00:03;22.60;;;16.48;;
23078;SDS011;11707;50.830;4.364;2023-06-22T07:05:06;21.00;;;15.48;;
23078;SDS011;11707;50.830;4.364;2023-06-22T07:07:32;20.92;;;16.08;;
23078;SDS011;11707;50.830;4.364;2023-06-22T07:09:58;22.20;;;15.15;;
23078;SDS011;11707;50.830;4.364;2023-06-22T07:12:24;24.73;;;15.98;;
23078;SDS011;11707;50.830;4.364;2023-06-22T07:14:53;24.88;;;16.27;;
23078;SDS011;11707;50.830;4.364;2023-06-22T07:17:18;29.27;;;17.30;;
23078;SDS011;11707;50.830;4.364;2023-06-22T07:19:45;20.00;;;16.33;;
23078;SDS011;11707;50.830;4.364;2023-06-22T07:22:10;18.33;;;15.05;;
23078;SDS011;11707;50.830;4.364;2023-06-22T07:24:36;21.77;;;15.85;;
23078;SDS011;11707;50.830;4.364;2023-06-22T07:27:02;19.98;;;15.30;;
23078;SDS011;11707;50.830;4.364;2023-06-22T07:29:30;20.55;;;15.38;;
23078;SDS011;11707;50.830;4.364;2023-06-22T07:31:56;20.00;;;15.23;;
23078;SDS011;11707;50.830;4.364;2023-06-22T07:34:22;17.67;;;14.43;;
23078;SDS011;11707;50.830;4.364;2023-06-22T07:36:48;19.48;;;14.93;;
23078;SDS011;11707;50.830;4.364;2023-06-22T07:39:16;23.00;;;14.75;;
23078;SDS011;11707;50.830;4.364;2023-06-22T07:41:47;24.63;;;14.38;;
23078;SDS011;11707;50.830;4.364;2023-06-22T07:44:15;18.77;;;14.07;;
23078;SDS011;11707;50.830;4.364;2023-06-22T07:46:43;15.45;;;13.40;;
23078;SDS011;11707;50.830;4.364;2023-06-22T07:49:08;21.63;;;14.05;;
23078;SDS011;11707;50.830;4.364;2023-06-22T07:51:34;20.65;;;13.30;;
23078;SDS011;11707;50.830;4.364;2023-06-22T07:54:00;20.10;;;14.02;;
23078;SDS011;11707;50.830;4.364;2023-06-22T07:56:29;23.23;;;13.95;;
23078;SDS011;11707;50.830;4.364;2023-06-22T07:58:54;16.25;;;12.55;;
23078;SDS011;11707;50.830;4.364;2023-06-22T08:01:23;16.42;;;13.25;;
23078;SDS011;11707;50.830;4.364;2023-06-22T08:03:51;17.52;;;12.38;;
23078;SDS011;11707;50.830;4.364;2023-06-22T08:06:18;14.93;;;13.23;;
23078;SDS011;11707;50.830;4.364;2023-06-22T08:08:44;20.33;;;13.85;;
23078;SDS011;11707;50.830;4.364;2023-06-22T08:11:13;15.88;;;13.10;;
23078;SDS011;11707;50.830;4.364;2023-06-22T08:13:39;27.02;;;14.15;;
23078;SDS011;11707;50.830;4.364;2023-06-22T08:16:06;20.90;;;13.02;;
23078;SDS011;11707;50.830;4.364;2023-06-22T08:18:32;20.33;;;14.00;;
23078;SDS011;11707;50.830;4.364;2023-06-22T08:20:58;18.70;;;13.30;;
23078;SDS011;11707;50.830;4.364;2023-06-22T08:23:26;21.35;;;13.90;;
23078;SDS011;11707;50.830;4.364;2023-06-22T08:25:52;21.35;;;13.43;;
23078;SDS011;11707;50.830;4.364;2023-06-22T08:28:17;16.67;;;14.05;;
23078;SDS011;11707;50.830;4.364;2023-06-22T08:30:43;22.10;;;12.88;;
23078;SDS011;11707;50.830;4.364;2023-06-22T08:33:09;21.58;;;13.73;;
23078;SDS011;11707;50.830;4.364;2023-06-22T08:35:35;17.60;;;13.27;;
23078;SDS011;11707;50.830;4.364;2023-06-22T08:38:00;22.65;;;14.30;;
23078;SDS011;11707;50.830;4.364;2023-06-22T08:40:27;20.67;;;14.40;;
23078;SDS011;11707;50.830;4.364;2023-06-22T08:42:54;21.23;;;14.35;;
23078;SDS011;11707;50.830;4.364;2023-06-22T08:45:20;21.98;;;13.40;;
23078;SDS011;11707;50.830;4.364;2023-06-22T08:47:46;18.83;;;14.38;;
23078;SDS011;11707;50.830;4.364;2023-06-22T08:50:12;16.10;;;14.02;;
23078;SDS011;11707;50.830;4.364;2023-06-22T08:52:40;17.17;;;13.30;;
23078;SDS011;11707;50.830;4.364;2023-06-22T08:55:06;15.75;;;13.75;;
23078;SDS011;11707;50.830;4.364;2023-06-22T08:57:33;17.65;;;14.40;;
23078;SDS011;11707;50.830;4.364;2023-06-22T08:59:59;18.83;;;14.00;;
23078;SDS011;11707;50.830;4.364;2023-06-22T09:02:27;19.73;;;13.02;;
23078;SDS011;11707;50.830;4.364;2023-06-22T09:04:59;19.48;;;13.68;;
23078;SDS011;11707;50.830;4.364;2023-06-22T09:07:28;14.07;;;12.57;;
23078;SDS011;11707;50.830;4.364;2023-06-22T09:09:53;16.33;;;13.75;;
23078;SDS011;11707;50.830;4.364;2023-06-22T09:12:20;19.23;;;13.93;;
23078;SDS011;11707;50.830;4.364;2023-06-22T09:14:49;15.18;;;12.52;;
23078;SDS011;11707;50.830;4.364;2023-06-22T09:17:15;17.05;;;12.80;;
23078;SDS011;11707;50.830;4.364;2023-06-22T09:19:41;18.17;;;12.00;;
23078;SDS011;11707;50.830;4.364;2023-06-22T09:22:09;14.85;;;11.65;;
23078;SDS011;11707;50.830;4.364;2023-06-22T09:24:35;16.23;;;11.00;;
23078;SDS011;11707;50.830;4.364;2023-06-22T09:27:01;14.90;;;11.68;;
23078;SDS011;11707;50.830;4.364;2023-06-22T09:29:27;15.35;;;13.07;;
23078;SDS011;11707;50.830;4.364;2023-06-22T09:31:53;14.00;;;12.00;;
23078;SDS011;11707;50.830;4.364;2023-06-22T09:34:21;17.80;;;12.48;;
23078;SDS011;11707;50.830;4.364;2023-06-22T09:36:47;17.65;;;12.90;;
23078;SDS011;11707;50.830;4.364;2023-06-22T09:39:12;18.40;;;12.98;;
23078;SDS011;11707;50.830;4.364;2023-06-22T09:41:38;21.10;;;14.95;;
23078;SDS011;11707;50.830;4.364;2023-06-22T09:44:04;22.52;;;17.15;;
23078;SDS011;11707;50.830;4.364;2023-06-22T09:46:29;19.85;;;13.43;;
23078;SDS011;11707;50.830;4.364;2023-06-22T09:48:57;15.32;;;13.10;;
23078;SDS011;11707;50.830;4.364;2023-06-22T09:51:26;23.20;;;17.23;;
23078;SDS011;11707;50.830;4.364;2023-06-22T09:53:52;23.45;;;17.83;;
23078;SDS011;11707;50.830;4.364;2023-06-22T09:56:21;26.63;;;18.08;;
23078;SDS011;11707;50.830;4.364;2023-06-22T09:58:47;26.35;;;19.83;;
23078;SDS011;11707;50.830;4.364;2023-06-22T10:01:15;28.02;;;21.50;;
23078;SDS011;11707;50.830;4.364;2023-06-22T10:03:43;28.63;;;22.08;;
23078;SDS011;11707;50.830;4.364;2023-06-22T10:06:11;27.95;;;21.27;;
23078;SDS011;11707;50.830;4.364;2023-06-22T10:08:40;28.55;;;21.15;;
23078;SDS011;11707;50.830;4.364;2023-06-22T10:11:05;25.10;;;20.17;;
23078;SDS011;11707;50.830;4.364;2023-06-22T10:13:31;27.23;;;19.92;;
23078;SDS011;11707;50.830;4.364;2023-06-22T10:15:57;22.40;;;19.60;;
23078;SDS011;11707;50.830;4.364;2023-06-22T10:18:23;29.23;;;22.08;;
23078;SDS011;11707;50.830;4.364;2023-06-22T10:20:49;26.98;;;22.02;;
23078;SDS011;11707;50.830;4.364;2023-06-22T10:23:16;33.30;;;23.13;;
23078;SDS011;11707;50.830;4.364;2023-06-22T10:25:42;26.73;;;22.10;;
23078;SDS011;11707;50.830;4.364;2023-06-22T10:28:10;29.55;;;22.45;;
23078;SDS011;11707;50.830;4.364;2023-06-22T10:30:37;23.15;;;20.65;;
23078;SDS011;11707;50.830;4.364;2023-06-22T10:33:03;25.88;;;19.05;;
23078;SDS011;11707;50.830;4.364;2023-06-22T10:35:29;22.40;;;19.42;;
23078;SDS011;11707;50.830;4.364;2023-06-22T10:37:55;24.75;;;20.02;;
23078;SDS011;11707;50.830;4.364;2023-06-22T10:40:21;22.85;;;20.35;;
23078;SDS011;11707;50.830;4.364;2023-06-22T10:42:47;25.60;;;20.08;;
23078;SDS011;11707;50.830;4.364;2023-06-22T10:45:12;27.10;;;23.27;;
23078;SDS011;11707;50.830;4.364;2023-06-22T10:47:38;30.75;;;22.75;;
23078;SDS011;11707;50.830;4.364;2023-06-22T10:50:04;26.30;;;22.88;;
23078;SDS011;11707;50.830;4.364;2023-06-22T10:52:33;28.58;;;23.10;;
23078;SDS011;11707;50.830;4.364;2023-06-22T10:55:01;29.70;;;24.77;;
23078;SDS011;11707;50.830;4.364;2023-06-22T10:57:27;30.70;;;25.63;;
23078;SDS011;11707;50.830;4.364;2023-06-22T10:59:55;33.80;;;27.05;;
23078;SDS011;11707;50.830;4.364;2023-06-22T11:02:21;34.70;;;26.85;;
23078;SDS011;11707;50.830;4.364;2023-06-22T11:04:46;34.63;;;27.80;;
23078;SDS011;11707;50.830;4.364;2023-06-22T11:07:15;35.05;;;27.20;;
23078;SDS011;11707;50.830;4.364;2023-06-22T11:09:43;38.10;;;29.27;;
23078;SDS011;11707;50.830;4.364;2023-06-22T11:12:11;33.75;;;28.48;;
23078;SDS011;11707;50.830;4.364;2023-06-22T11:14:38;33.97;;;28.83;;
23078;SDS011;11707;50.830;4.364;2023-06-22T11:17:04;36.63;;;28.55;;
23078;SDS011;11707;50.830;4.364;2023-06-22T11:19:30;40.05;;;29.30;;
23078;SDS011;11707;50.830;4.364;2023-06-22T11:21:56;34.15;;;28.85;;
23078;SDS011;11707;50.830;4.364;2023-06-22T11:24:21;36.72;;;29.85;;
23078;SDS011;11707;50.830;4.364;2023-06-22T11:26:49;36.97;;;29.63;;
23078;SDS011;11707;50.830;4.364;2023-06-22T11:29:15;32.85;;;29.25;;
23078;SDS011;11707;50.830;4.364;2023-06-22T11:31:43;33.20;;;29.35;;
23078;SDS011;11707;50.830;4.364;2023-06-22T11:34:09;35.72;;;29.90;;
23078;SDS011;11707;50.830;4.364;2023-06-22T11:36:39;35.30;;;29.17;;
23078;SDS011;11707;50.830;4.364;2023-06-22T11:39:05;32.20;;;28.75;;
23078;SDS011;11707;50.830;4.364;2023-06-22T11:41:34;31.35;;;26.38;;
23078;SDS011;11707;50.830;4.364;2023-06-22T11:44:00;32.38;;;26.98;;
23078;SDS011;11707;50.830;4.364;2023-06-22T11:46:25;33.25;;;25.38;;
23078;SDS011;11707;50.830;4.364;2023-06-22T11:48:54;31.63;;;25.25;;
23078;SDS011;11707;50.830;4.364;2023-06-22T11:51:20;29.35;;;24.83;;
23078;SDS011;11707;50.830;4.364;2023-06-22T11:53:46;27.30;;;24.10;;
23078;SDS011;11707;50.830;4.364;2023-06-22T11:56:11;30.73;;;23.65;;
23078;SDS011;11707;50.830;4.364;2023-06-22T11:58:37;30.75;;;24.00;;
23078;SDS011;11707;50.830;4.364;2023-06-22T12:01:03;30.52;;;25.33;;
23078;SDS011;11707;50.830;4.364;2023-06-22T12:03:31;31.35;;;25.48;;
23078;SDS011;11707;50.830;4.364;2023-06-22T12:05:57;30.35;;;25.35;;
23078;SDS011;11707;50.830;4.364;2023-06-22T12:08:25;33.33;;;26.35;;
23078;SDS011;11707;50.830;4.364;2023-06-22T12:10:53;36.67;;;27.33;;
23078;SDS011;11707;50.830;4.364;2023-06-22T12:13:19;33.70;;;26.25;;
23078;SDS011;11707;50.830;4.364;2023-06-22T12:15:44;30.00;;;26.65;;
23078;SDS011;11707;50.830;4.364;2023-06-22T12:18:10;31.02;;;27.08;;
23078;SDS011;11707;50.830;4.364;2023-06-22T12:20:36;34.78;;;27.60;;
23078;SDS011;11707;50.830;4.364;2023-06-22T12:23:02;34.10;;;27.45;;
23078;SDS011;11707;50.830;4.364;2023-06-22T12:25:28;33.40;;;26.48;;
23078;SDS011;11707;50.830;4.364;2023-06-22T12:27:53;32.63;;;26.63;;
23078;SDS011;11707;50.830;4.364;2023-06-22T12:30:19;34.40;;;27.13;;
23078;SDS011;11707;50.830;4.364;2023-06-22T12:32:45;36.83;;;29.42;;
23078;SDS011;11707;50.830;4.364;2023-06-22T12:35:10;37.80;;;30.10;;
23078;SDS011;11707;50.830;4.364;2023-06-22T12:37:41;37.72;;;29.70;;
23078;SDS011;11707;50.830;4.364;2023-06-22T12:40:12;35.10;;;28.55;;
23078;SDS011;11707;50.830;4.364;2023-06-22T12:42:38;35.85;;;30.52;;
23078;SDS011;11707;50.830;4.364;2023-06-22T12:45:04;40.38;;;31.05;;
23078;SDS011;11707;50.830;4.364;2023-06-22T12:47:31;41.80;;;32.58;;
23078;SDS011;11707;50.830;4.364;2023-06-22T12:49:59;42.92;;;32.47;;
23078;SDS011;11707;50.830;4.364;2023-06-22T12:52:29;41.55;;;35.03;;
23078;SDS011;11707;50.830;4.364;2023-06-22T12:54:58;45.53;;;35.42;;
23078;SDS011;11707;50.830;4.364;2023-06-22T12:57:26;47.80;;;36.17;;
23078;SDS011;11707;50.830;4.364;2023-06-22T12:59:54;49.10;;;36.70;;
23078;SDS011;11707;50.830;4.364;2023-06-22T13:02:20;46.35;;;35.97;;
23078;SDS011;11707;50.830;4.364;2023-06-22T13:04:46;47.28;;;38.50;;
23078;SDS011;11707;50.830;4.364;2023-06-22T13:07:11;45.75;;;37.67;;
23078;SDS011;11707;50.830;4.364;2023-06-22T13:09:37;46.13;;;37.70;;
23078;SDS011;11707;50.830;4.364;2023-06-22T13:12:05;46.97;;;38.22;;
23078;SDS011;11707;50.830;4.364;2023-06-22T13:14:32;51.25;;;39.42;;
23078;SDS011;11707;50.830;4.364;2023-06-22T13:17:00;49.47;;;40.63;;
23078;SDS011;11707;50.830;4.364;2023-06-22T13:19:31;52.28;;;40.55;;
23078;SDS011;11707;50.830;4.364;2023-06-22T13:21:59;48.78;;;38.97;;
23078;SDS011;11707;50.830;4.364;2023-06-22T13:24:25;53.25;;;41.92;;
23078;SDS011;11707;50.830;4.364;2023-06-22T13:26:50;55.20;;;41.60;;
23078;SDS011;11707;50.830;4.364;2023-06-22T13:29:16;54.40;;;45.80;;
23078;SDS011;11707;50.830;4.364;2023-06-22T13:31:42;56.10;;;43.75;;
23078;SDS011;11707;50.830;4.364;2023-06-22T13:34:07;54.50;;;42.65;;
23078;SDS011;11707;50.830;4.364;2023-06-22T13:36:33;62.67;;;43.45;;
23078;SDS011;11707;50.830;4.364;2023-06-22T13:39:01;53.65;;;42.30;;
23078;SDS011;11707;50.830;4.364;2023-06-22T13:41:27;52.17;;;41.15;;
23078;SDS011;11707;50.830;4.364;2023-06-22T13:43:57;56.80;;;42.03;;
23078;SDS011;11707;50.830;4.364;2023-06-22T13:46:23;54.22;;;43.42;;
23078;SDS011;11707;50.830;4.364;2023-06-22T13:48:49;56.22;;;42.80;;
23078;SDS011;11707;50.830;4.364;2023-06-22T13:51:14;51.58;;;41.47;;
23078;SDS011;11707;50.830;4.364;2023-06-22T13:53:40;53.90;;;41.67;;
23078;SDS011;11707;50.830;4.364;2023-06-22T13:56:06;53.95;;;40.90;;
23078;SDS011;11707;50.830;4.364;2023-06-22T13:58:34;53.95;;;42.20;;
23078;SDS011;11707;50.830;4.364;2023-06-22T14:01:00;52.90;;;40.95;;
23078;SDS011;11707;50.830;4.364;2023-06-22T14:03:26;52.15;;;39.88;;
23078;SDS011;11707;50.830;4.364;2023-06-22T14:05:51;49.72;;;41.83;;
23078;SDS011;11707;50.830;4.364;2023-06-22T14:08:20;52.05;;;40.63;;
23078;SDS011;11707;50.830;4.364;2023-06-22T14:10:48;50.92;;;40.67;;
23078;SDS011;11707;50.830;4.364;2023-06-22T14:13:18;49.08;;;40.33;;
23078;SDS011;11707;50.830;4.364;2023-06-22T14:15:46;47.28;;;38.67;;
23078;SDS011;11707;50.830;4.364;2023-06-22T14:18:13;50.35;;;41.65;;
23078;SDS011;11707;50.830;4.364;2023-06-22T14:20:41;46.22;;;39.08;;
23078;SDS011;11707;50.830;4.364;2023-06-22T14:23:07;46.38;;;37.53;;
23078;SDS011;11707;50.830;4.364;2023-06-22T14:25:33;52.58;;;42.13;;
23078;SDS011;11707;50.830;4.364;2023-06-22T14:27:58;47.95;;;39.45;;
23078;SDS011;11707;50.830;4.364;2023-06-22T14:30:24;52.17;;;41.05;;
23078;SDS011;11707;50.830;4.364;2023-06-22T14:32:52;52.40;;;41.58;;
23078;SDS011;11707;50.830;4.364;2023-06-22T14:35:18;51.55;;;38.40;;
23078;SDS011;11707;50.830;4.364;2023-06-22T14:37:44;49.95;;;38.10;;